Time;durP1;ratioP1;P1;durP2;ratioP2;P2;SDS_P1;SDS_P2;PMS_P1;PMS_P2;Temp;Humidity;BMP_temperature;BMP_pressure;BME280_temperature;BME280_humidity;BME280_pressure;Samples;Min_cycle;Max_cycle;Signal;HPM_P1;HPM_P2
2022/07/21 00:00:57;;;;;;;5.70;5.30;;;18.30;99.90;;;;;;5073478;28;20573;-56
2022/07/21 00:03:25;;;;;;;6.83;5.30;;;18.20;99.90;;;;;;5076590;28;20604;-56
2022/07/21 00:05:54;;;;;;;6.60;5.50;;;18.20;99.90;;;;;;5076407;28;20656;-56
2022/07/21 00:08:23;;;;;;;5.73;5.23;;;18.20;99.90;;;;;;5076865;28;20198;-55
2022/07/21 00:10:52;;;;;;;6.20;5.70;;;18.10;99.90;;;;;;5075372;28;20537;-56
2022/07/21 00:13:22;;;;;;;10.27;5.50;;;18.10;99.90;;;;;;5074913;28;20243;-56
2022/07/21 00:15:50;;;;;;;7.10;5.33;;;18.10;99.90;;;;;;5076450;28;20248;-55
2022/07/21 00:18:20;;;;;;;6.30;5.80;;;18.10;99.90;;;;;;5076235;28;20199;-56
2022/07/21 00:20:49;;;;;;;6.10;5.50;;;18.10;99.90;;;;;;5076285;28;20188;-56
2022/07/21 00:23:18;;;;;;;6.40;5.77;;;18.10;99.90;;;;;;5076271;28;20198;-55
2022/07/21 00:25:46;;;;;;;6.17;5.60;;;18.00;99.90;;;;;;5075989;28;20205;-56
2022/07/21 00:28:15;;;;;;;8.00;5.57;;;18.00;99.90;;;;;;5075855;28;20286;-55
2022/07/21 00:30:45;;;;;;;5.73;5.23;;;18.00;99.90;;;;;;5076111;28;20663;-56
2022/07/21 00:33:13;;;;;;;8.67;6.13;;;18.00;99.90;;;;;;5075998;28;20224;-56
2022/07/21 00:35:42;;;;;;;6.93;5.53;;;18.00;99.90;;;;;;5075793;28;20202;-55
2022/07/21 00:38:11;;;;;;;5.80;5.30;;;18.00;99.90;;;;;;5075908;28;20274;-56
2022/07/21 00:40:39;;;;;;;8.50;5.70;;;18.00;99.90;;;;;;5076056;28;20199;-55
2022/07/21 00:43:07;;;;;;;8.67;5.80;;;18.00;99.90;;;;;;5075816;28;20226;-56
2022/07/21 00:45:36;;;;;;;12.40;5.77;;;18.00;99.90;;;;;;5075571;28;20279;-56
2022/07/21 00:48:07;;;;;;;7.93;5.70;;;17.90;99.90;;;;;;5075600;28;20210;-56
2022/07/21 00:50:36;;;;;;;7.17;6.00;;;17.90;99.90;;;;;;5075783;28;20196;-56
2022/07/21 00:53:04;;;;;;;9.40;6.23;;;17.80;99.90;;;;;;5074366;28;20251;-56
2022/07/21 00:55:33;;;;;;;7.10;5.73;;;17.80;99.90;;;;;;5075451;28;20671;-55
2022/07/21 00:58:01;;;;;;;6.60;5.90;;;17.70;99.90;;;;;;5075650;28;20557;-56
2022/07/21 01:00:30;;;;;;;8.13;5.90;;;17.70;99.90;;;;;;5075480;28;20199;-56
2022/07/21 01:03:08;;;;;;;7.67;6.23;;;17.70;99.90;;;;;;5074331;28;20176;-56
2022/07/21 01:05:36;;;;;;;11.60;6.60;;;17.60;99.90;;;;;;5075368;28;20184;-55
2022/07/21 01:08:06;;;;;;;9.23;5.90;;;17.60;99.90;;;;;;5074895;28;20697;-56
2022/07/21 01:10:35;;;;;;;11.57;6.00;;;17.60;99.90;;;;;;5053922;28;20300;-56
2022/07/21 01:13:03;;;;;;;7.07;6.37;;;17.60;99.90;;;;;;5054624;28;20221;-56
2022/07/21 01:15:32;;;;;;;7.97;6.27;;;17.60;99.90;;;;;;5055156;28;20548;-56
2022/07/21 01:18:01;;;;;;;7.97;6.37;;;17.60;99.90;;;;;;5072925;28;20201;-54
2022/07/21 01:20:35;;;;;;;7.43;6.30;;;17.60;99.90;;;;;;5075344;28;20547;-56
2022/07/21 01:23:05;;;;;;;7.83;6.13;;;17.60;99.90;;;;;;5075297;28;20283;-56
2022/07/21 01:25:33;;;;;;;8.00;6.37;;;17.50;99.90;;;;;;5073932;28;20195;-55
2022/07/21 01:28:01;;;;;;;7.33;6.63;;;17.50;99.90;;;;;;5074980;28;20200;-56
2022/07/21 01:30:30;;;;;;;9.03;6.83;;;17.40;99.90;;;;;;5074935;28;20198;-56
2022/07/21 01:32:58;;;;;;;13.53;7.00;;;17.40;99.90;;;;;;5074969;28;20273;-55
2022/07/21 01:35:27;;;;;;;9.13;6.67;;;17.40;99.90;;;;;;5074786;28;20197;-56
2022/07/21 01:37:55;;;;;;;11.67;7.20;;;17.30;99.90;;;;;;5107401;28;20196;-56
2022/07/21 01:43:11;;;;;;;7.30;6.60;;;17.30;99.90;;;;;;5063396;28;20243;-56
2022/07/21 01:45:41;;;;;;;10.30;7.50;;;17.30;99.90;;;;;;5074720;28;20211;-56
2022/07/21 01:48:10;;;;;;;7.80;7.17;;;17.20;99.90;;;;;;5064046;28;20264;-56
2022/07/21 01:50:39;;;;;;;10.07;7.10;;;17.20;99.90;;;;;;5054736;28;20510;-56
2022/07/21 01:53:07;;;;;;;11.30;7.40;;;17.30;99.90;;;;;;5064276;28;20557;-56
2022/07/21 01:55:37;;;;;;;12.63;7.60;;;17.20;99.90;;;;;;5070773;28;20700;-56
2022/07/21 01:58:06;;;;;;;9.00;7.23;;;17.20;99.90;;;;;;5064924;28;20220;-56
2022/07/21 02:00:34;;;;;;;17.63;7.53;;;17.20;99.90;;;;;;5074709;28;20201;-56
2022/07/21 02:03:40;;;;;;;12.40;8.10;;;17.20;99.90;;;;;;5073397;28;20675;-55
2022/07/21 02:06:09;;;;;;;13.97;7.70;;;17.30;99.90;;;;;;5064567;28;20282;-56
2022/07/21 02:08:38;;;;;;;12.07;7.87;;;17.30;99.90;;;;;;5073353;28;20280;-55
2022/07/21 02:11:08;;;;;;;11.00;7.80;;;17.30;99.90;;;;;;5073663;28;20594;-57
2022/07/21 02:13:37;;;;;;;10.60;7.67;;;17.30;99.90;;;;;;5074178;28;20208;-56
2022/07/21 02:16:06;;;;;;;15.07;9.33;;;17.40;99.90;;;;;;5074341;28;20661;-56
2022/07/21 02:18:34;;;;;;;12.53;8.80;;;17.40;99.90;;;;;;5106588;28;20197;-56
2022/07/21 02:21:04;;;;;;;17.07;9.70;;;17.40;99.90;;;;;;5073985;28;20196;-56
2022/07/21 02:23:33;;;;;;;15.53;9.33;;;17.30;99.90;;;;;;5074241;28;20201;-56
2022/07/21 02:26:02;;;;;;;13.43;9.10;;;17.30;99.90;;;;;;5072892;28;20208;-56
2022/07/21 02:28:32;;;;;;;9.67;8.70;;;17.30;99.90;;;;;;5073918;28;20200;-56
2022/07/21 02:31:01;;;;;;;19.03;9.20;;;17.30;99.90;;;;;;5073819;28;20283;-56
2022/07/21 02:33:29;;;;;;;18.47;9.90;;;17.30;99.90;;;;;;5073447;28;20224;-56
2022/07/21 02:35:58;;;;;;;18.13;10.07;;;17.30;99.90;;;;;;5073714;28;20196;-56
2022/07/21 02:38:26;;;;;;;11.80;8.93;;;17.30;99.90;;;;;;5073654;28;20270;-56
2022/07/21 02:40:54;;;;;;;17.10;9.13;;;17.30;99.90;;;;;;5073932;28;20648;-56
2022/07/21 02:43:25;;;;;;;12.53;9.47;;;17.30;99.90;;;;;;5073643;28;20198;-56
2022/07/21 02:45:55;;;;;;;11.37;9.43;;;17.30;99.90;;;;;;5073638;28;20199;-54
2022/07/21 02:48:23;;;;;;;12.30;9.23;;;17.40;99.90;;;;;;5073572;28;20192;-55
2022/07/21 02:50:52;;;;;;;15.63;9.73;;;17.40;99.90;;;;;;5073333;28;20196;-56
2022/07/21 02:53:22;;;;;;;13.37;10.00;;;17.40;99.90;;;;;;5073547;28;20211;-56
2022/07/21 02:55:52;;;;;;;17.47;9.73;;;17.40;99.90;;;;;;5073203;28;20220;-57
2022/07/21 02:58:22;;;;;;;14.47;10.30;;;17.40;99.90;;;;;;5073396;28;20267;-57
2022/07/21 03:00:52;;;;;;;13.77;10.03;;;17.40;99.90;;;;;;5073364;28;20322;-55
2022/07/21 03:03:43;;;;;;;16.87;9.90;;;17.40;99.90;;;;;;5072874;28;20245;-56
2022/07/21 03:06:11;;;;;;;17.73;10.13;;;17.40;99.90;;;;;;5073232;28;20222;-56
2022/07/21 03:08:40;;;;;;;17.83;10.43;;;17.40;99.90;;;;;;5071970;28;20210;-56
2022/07/21 03:11:08;;;;;;;16.40;11.03;;;17.40;99.90;;;;;;5073205;28;20674;-56
2022/07/21 03:13:37;;;;;;;15.80;10.77;;;17.40;99.90;;;;;;5073301;28;20279;-56
2022/07/21 03:16:05;;;;;;;17.63;10.57;;;17.40;99.90;;;;;;5073024;28;20211;-56
2022/07/21 03:18:35;;;;;;;22.03;11.43;;;17.50;99.90;;;;;;5073605;28;20203;-56
2022/07/21 03:21:05;;;;;;;17.63;10.80;;;17.50;99.90;;;;;;5073308;28;20201;-56
2022/07/21 03:23:33;;;;;;;17.10;10.70;;;17.50;99.90;;;;;;5073276;28;20191;-54
2022/07/21 03:26:02;;;;;;;14.80;10.37;;;17.50;99.90;;;;;;5073086;28;20198;-55
2022/07/21 03:28:30;;;;;;;15.87;11.40;;;17.50;99.90;;;;;;5073223;28;20192;-56
2022/07/21 03:30:58;;;;;;;18.77;11.43;;;17.60;99.90;;;;;;5072940;28;20249;-56
2022/07/21 03:33:27;;;;;;;23.93;11.03;;;17.60;99.90;;;;;;5072899;28;20219;-56
2022/07/21 03:35:57;;;;;;;15.83;11.00;;;17.60;99.90;;;;;;5070923;28;20330;-56
2022/07/21 03:38:27;;;;;;;14.17;11.30;;;17.70;99.90;;;;;;5057339;28;20277;-56
2022/07/21 03:40:56;;;;;;;17.77;11.20;;;17.70;99.90;;;;;;5074485;28;20214;-56
2022/07/21 03:43:24;;;;;;;17.17;11.20;;;17.70;99.90;;;;;;5065737;28;20649;-57
2022/07/21 03:45:52;;;;;;;22.47;11.67;;;17.80;99.90;;;;;;5089587;28;20195;-56
2022/07/21 03:48:21;;;;;;;19.23;11.80;;;17.80;99.90;;;;;;5055496;28;20291;-56
2022/07/21 03:50:50;;;;;;;21.97;13.07;;;17.90;99.90;;;;;;5056961;28;20275;-56
2022/07/21 03:53:18;;;;;;;28.20;13.93;;;17.90;99.90;;;;;;5056604;28;20280;-56
2022/07/21 03:55:48;;;;;;;23.97;13.43;;;17.90;99.90;;;;;;5070189;28;20654;-56
2022/07/21 03:58:16;;;;;;;21.47;12.60;;;17.90;99.90;;;;;;5056771;28;20557;-54
2022/07/21 04:00:46;;;;;;;21.90;13.90;;;18.00;99.90;;;;;;5062038;28;20583;-56
2022/07/21 04:03:16;;;;;;;18.83;14.40;;;18.00;99.90;;;;;;5077159;28;20656;-56
2022/07/21 04:05:44;;;;;;;23.57;13.90;;;18.00;99.90;;;;;;5075495;28;20195;-56
2022/07/21 04:08:13;;;;;;;20.23;14.33;;;18.00;99.90;;;;;;5076584;28;20221;-56
2022/07/21 04:10:44;;;;;;;25.57;14.67;;;18.00;99.90;;;;;;5076788;28;20611;-56
2022/07/21 04:13:53;;;;;;;24.67;14.80;;;18.00;99.90;;;;;;5076440;28;20781;-56
2022/07/21 04:17:02;;;;;;;23.83;14.90;;;18.00;99.90;;;;;;5065654;28;20276;-56
2022/07/21 04:19:36;;;;;;;25.53;16.30;;;18.10;99.90;;;;;;5055226;28;20597;-57
2022/07/21 04:22:45;;;;;;;25.20;16.53;;;18.10;99.90;;;;;;5056027;28;20204;-56
2022/07/21 04:25:35;;;;;;;27.67;16.63;;;18.10;99.90;;;;;;5038392;28;20193;-57
2022/07/21 04:28:04;;;;;;;27.97;16.63;;;18.00;99.90;;;;;;5074962;28;20207;-57
2022/07/21 04:30:33;;;;;;;30.47;16.90;;;18.00;99.90;;;;;;5074953;28;20192;-56
2022/07/21 04:33:02;;;;;;;32.47;17.40;;;18.00;99.90;;;;;;5076088;28;20229;-56
2022/07/21 04:35:30;;;;;;;33.63;19.00;;;18.00;99.90;;;;;;5074544;28;20241;-57
2022/07/21 04:37:59;;;;;;;32.43;18.87;;;18.00;99.90;;;;;;5076288;28;20281;-57
2022/07/21 04:40:27;;;;;;;31.43;18.57;;;17.90;99.90;;;;;;5075853;28;20287;-56
2022/07/21 04:42:55;;;;;;;31.63;18.43;;;17.90;99.90;;;;;;5055725;28;20188;-57
2022/07/21 04:45:24;;;;;;;36.30;19.20;;;17.90;99.90;;;;;;5055793;28;20197;-56
2022/07/21 04:47:55;;;;;;;32.30;20.10;;;17.90;99.90;;;;;;5062278;28;20192;-56
2022/07/21 04:50:25;;;;;;;32.63;20.10;;;17.90;99.90;;;;;;5075736;28;20594;-57
2022/07/21 04:52:55;;;;;;;32.03;20.97;;;17.80;99.90;;;;;;5075645;28;20312;-57
2022/07/21 04:55:23;;;;;;;33.57;21.20;;;17.80;99.90;;;;;;5074308;28;20219;-56
2022/07/21 04:57:53;;;;;;;33.13;20.90;;;17.80;99.90;;;;;;5074234;28;20664;-56
2022/07/21 05:00:24;;;;;;;35.27;20.37;;;17.80;99.90;;;;;;5075538;28;20275;-55
2022/07/21 05:02:54;;;;;;;36.63;20.00;;;17.80;99.90;;;;;;5074338;28;20198;-56
2022/07/21 05:05:24;;;;;;;40.67;21.63;;;17.80;99.90;;;;;;5075714;28;20714;-57
2022/07/21 05:07:52;;;;;;;37.10;20.27;;;17.80;99.90;;;;;;5075091;28;20232;-57
2022/07/21 05:10:21;;;;;;;36.77;20.50;;;17.80;99.90;;;;;;5069726;28;20201;-57
2022/07/21 05:12:50;;;;;;;34.17;20.63;;;17.80;99.90;;;;;;5055229;28;20197;-56
2022/07/21 05:15:18;;;;;;;35.93;20.50;;;17.80;99.90;;;;;;5061492;28;20672;-57
2022/07/21 05:17:47;;;;;;;36.90;20.43;;;17.80;99.90;;;;;;5073742;28;20223;-57
2022/07/21 05:20:16;;;;;;;41.53;21.87;;;17.80;99.90;;;;;;5073813;28;20279;-57
2022/07/21 05:22:44;;;;;;;42.13;21.33;;;17.80;99.90;;;;;;5075140;28;20218;-56
2022/07/21 05:25:13;;;;;;;34.03;20.73;;;17.80;99.90;;;;;;5074934;28;20223;-56
2022/07/21 05:27:41;;;;;;;40.43;21.93;;;17.80;99.90;;;;;;5074688;28;20204;-57
2022/07/21 05:30:11;;;;;;;38.00;22.70;;;17.80;99.90;;;;;;5074960;28;20547;-56
2022/07/21 05:32:40;;;;;;;39.80;22.63;;;17.80;99.90;;;;;;5074826;28;20661;-57
2022/07/21 05:35:17;;;;;;;38.70;23.27;;;17.80;99.90;;;;;;5073531;28;20679;-57
2022/07/21 05:37:46;;;;;;;38.67;23.57;;;17.80;99.90;;;;;;5074769;28;20200;-57
2022/07/21 05:40:15;;;;;;;44.40;24.63;;;17.80;99.90;;;;;;5064105;28;20207;-56
2022/07/21 05:42:43;;;;;;;47.53;25.50;;;17.80;99.90;;;;;;5058261;28;20261;-57
2022/07/21 05:45:12;;;;;;;44.40;25.10;;;17.80;99.90;;;;;;5073480;28;20214;-56
2022/07/21 05:47:41;;;;;;;51.20;27.47;;;17.80;99.90;;;;;;5073204;28;20192;-57
2022/07/21 05:50:11;;;;;;;49.57;26.20;;;17.80;99.90;;;;;;5074498;28;20197;-56
2022/07/21 05:52:41;;;;;;;54.17;28.97;;;17.80;99.90;;;;;;5070065;28;20896;-56
2022/07/21 05:55:10;;;;;;;49.03;27.87;;;17.80;99.90;;;;;;5074399;28;20281;-56
2022/07/21 05:57:39;;;;;;;55.13;29.23;;;17.80;99.90;;;;;;5074462;28;20293;-57
2022/07/21 06:00:15;;;;;;;61.97;30.77;;;17.80;99.90;;;;;;5074248;28;20190;-56
2022/07/21 06:02:43;;;;;;;56.93;29.90;;;17.90;99.90;;;;;;5074300;28;20228;-56
2022/07/21 06:05:12;;;;;;;64.07;32.13;;;17.90;99.90;;;;;;5074317;28;20195;-56
2022/07/21 06:07:42;;;;;;;63.63;31.03;;;17.90;99.90;;;;;;5072983;28;20255;-56
2022/07/21 06:10:10;;;;;;;73.80;32.23;;;17.90;99.90;;;;;;5074243;28;20207;-56
2022/07/21 06:12:43;;;;;;;77.33;34.33;;;17.90;99.90;;;;;;5074008;28;20275;-56
2022/07/21 06:15:12;;;;;;;73.90;34.87;;;17.90;99.90;;;;;;5073854;28;20202;-56
2022/07/21 06:17:41;;;;;;;73.80;34.70;;;17.90;99.90;;;;;;5073956;28;20259;-56
2022/07/21 06:20:10;;;;;;;73.97;36.20;;;17.90;99.90;;;;;;5074268;28;20195;-56
2022/07/21 06:22:39;;;;;;;74.03;34.87;;;17.90;99.90;;;;;;5073940;28;20200;-56
2022/07/21 06:25:09;;;;;;;79.17;36.13;;;18.00;99.90;;;;;;5073963;28;20279;-57
2022/07/21 06:27:38;;;;;;;84.13;36.77;;;18.00;99.90;;;;;;5073677;28;20705;-56
2022/07/21 06:30:07;;;;;;;78.17;37.67;;;18.00;99.90;;;;;;5073748;28;20196;-55
2022/07/21 06:32:36;;;;;;;92.23;38.30;;;18.10;99.90;;;;;;5073817;28;20210;-56
2022/07/21 06:35:05;;;;;;;85.23;36.73;;;18.10;99.90;;;;;;5073887;28;20216;-55
2022/07/21 06:37:34;;;;;;;83.67;38.90;;;18.10;99.90;;;;;;5072463;28;20208;-56
2022/07/21 06:40:05;;;;;;;84.50;39.87;;;18.20;99.90;;;;;;5073588;28;20187;-56
2022/07/21 06:42:35;;;;;;;89.33;39.83;;;18.10;99.90;;;;;;5073633;28;20208;-56
2022/07/21 06:45:04;;;;;;;83.67;38.77;;;18.20;99.90;;;;;;5073709;28;20188;-56
2022/07/21 06:47:33;;;;;;;86.43;39.17;;;18.20;99.90;;;;;;5055574;28;20184;-56
2022/07/21 06:50:02;;;;;;;93.50;39.67;;;18.20;99.90;;;;;;5073274;28;20590;-55
2022/07/21 06:52:34;;;;;;;84.13;38.47;;;18.20;99.90;;;;;;5073402;28;20216;-56
2022/07/21 06:55:03;;;;;;;85.80;39.47;;;18.30;99.90;;;;;;5073253;28;20195;-56
2022/07/21 06:57:32;;;;;;;90.23;40.23;;;18.30;99.90;;;;;;5073663;28;20303;-55
2022/07/21 07:00:02;;;;;;;87.47;41.00;;;18.30;99.90;;;;;;5072372;28;20267;-55
2022/07/21 07:02:30;;;;;;;82.10;40.80;;;18.30;99.90;;;;;;5053353;28;20181;-56
2022/07/21 07:04:59;;;;;;;88.40;39.53;;;18.30;99.90;;;;;;5063038;28;20575;-56
2022/07/21 07:07:35;;;;;;;84.73;39.20;;;18.40;99.90;;;;;;5072017;28;20262;-56
2022/07/21 07:10:04;;;;;;;78.33;37.63;;;18.40;99.90;;;;;;5073417;28;20275;-56
2022/07/21 07:12:32;;;;;;;83.57;37.43;;;18.40;99.90;;;;;;5071678;28;20283;-56
2022/07/21 07:15:22;;;;;;;86.27;38.33;;;18.40;99.90;;;;;;5073418;28;20192;-56
2022/07/21 07:17:51;;;;;;;79.93;36.60;;;18.50;99.90;;;;;;5070841;28;20204;-55
2022/07/21 07:20:20;;;;;;;73.13;35.40;;;18.50;99.90;;;;;;5059791;28;20249;-56
2022/07/21 07:22:49;;;;;;;70.60;33.97;;;18.40;99.90;;;;;;5073405;28;20284;-56
2022/07/21 07:25:59;;;;;;;76.97;35.90;;;18.40;99.90;;;;;;5073018;28;20235;-56
2022/07/21 07:28:28;;;;;;;72.43;34.53;;;18.40;99.90;;;;;;5073051;28;20531;-55
2022/07/21 07:30:58;;;;;;;67.33;34.20;;;18.40;99.90;;;;;;5072977;28;20192;-55
2022/07/21 07:33:27;;;;;;;63.13;33.37;;;18.40;99.90;;;;;;5073040;28;20271;-56
2022/07/21 07:35:57;;;;;;;54.30;30.90;;;18.40;99.90;;;;;;5056718;28;20214;-56
2022/07/21 07:38:25;;;;;;;54.13;30.03;;;18.40;99.90;;;;;;5061422;28;20223;-56
2022/07/21 07:40:54;;;;;;;52.37;28.17;;;18.40;99.90;;;;;;5069624;28;20192;-56
2022/07/21 07:43:22;;;;;;;51.20;26.07;;;18.40;99.90;;;;;;5073041;28;20188;-56
2022/07/21 07:45:50;;;;;;;50.87;25.47;;;18.30;99.90;;;;;;5063022;28;20288;-56
2022/07/21 07:48:20;;;;;;;45.87;24.93;;;18.30;99.90;;;;;;5073110;28;20223;-56
2022/07/21 07:50:49;;;;;;;44.70;24.27;;;18.40;99.90;;;;;;5072984;28;20184;-55
2022/07/21 07:53:17;;;;;;;43.20;24.33;;;18.40;99.90;;;;;;5072781;28;20302;-55
2022/07/21 07:55:45;;;;;;;39.57;23.07;;;18.40;99.90;;;;;;5072712;28;20329;-55
2022/07/21 07:58:14;;;;;;;41.80;22.47;;;18.50;99.90;;;;;;5072654;28;20216;-56
2022/07/21 08:00:42;;;;;;;38.53;21.93;;;18.50;99.90;;;;;;5071061;28;20534;-56
2022/07/21 08:03:32;;;;;;;39.43;20.77;;;18.60;99.90;;;;;;5104872;28;20203;-55
2022/07/21 08:06:03;;;;;;;33.40;18.17;;;18.60;99.90;;;;;;5104869;28;20295;-55
2022/07/21 08:08:32;;;;;;;31.53;17.73;;;18.60;99.90;;;;;;5071940;28;20196;-56
2022/07/21 08:11:00;;;;;;;29.17;16.90;;;18.60;99.90;;;;;;5072598;28;20662;-56
2022/07/21 08:13:29;;;;;;;26.47;15.20;;;18.60;99.90;;;;;;5072469;28;20188;-56
2022/07/21 08:15:57;;;;;;;22.47;15.60;;;18.60;99.90;;;;;;5071204;28;20292;-55
2022/07/21 08:18:26;;;;;;;26.20;14.87;;;18.60;99.90;;;;;;5072371;28;20622;-55
2022/07/21 08:20:56;;;;;;;21.50;14.17;;;18.60;99.90;;;;;;5072818;28;20207;-56
2022/07/21 08:23:25;;;;;;;17.40;12.50;;;18.60;99.90;;;;;;5074905;28;20188;-55
2022/07/21 08:25:53;;;;;;;19.67;13.87;;;18.50;99.90;;;;;;5075699;28;20275;-55
2022/07/21 08:28:21;;;;;;;18.27;12.03;;;18.50;99.90;;;;;;5075851;28;20718;-56
2022/07/21 08:30:50;;;;;;;17.00;11.10;;;18.50;99.90;;;;;;5076037;28;20271;-56
2022/07/21 08:33:18;;;;;;;14.40;10.83;;;18.50;99.90;;;;;;5068136;28;20235;-56
2022/07/21 08:35:46;;;;;;;16.23;11.00;;;18.40;99.90;;;;;;5054698;28;20250;-56
2022/07/21 08:38:20;;;;;;;13.87;11.00;;;18.30;99.90;;;;;;5064640;28;20208;-56
2022/07/21 08:40:48;;;;;;;16.07;11.07;;;18.30;99.90;;;;;;5076085;28;20279;-56
2022/07/21 08:43:17;;;;;;;13.57;10.30;;;18.30;99.90;;;;;;5075802;28;20271;-56
2022/07/21 08:45:45;;;;;;;17.83;11.40;;;18.40;99.90;;;;;;5075853;28;20234;-56
2022/07/21 08:48:19;;;;;;;17.10;11.37;;;18.40;99.90;;;;;;5075968;28;20184;-54
2022/07/21 08:50:47;;;;;;;18.97;11.60;;;18.40;99.90;;;;;;5075844;28;20191;-55
2022/07/21 08:53:17;;;;;;;17.47;11.70;;;18.50;99.90;;;;;;5075680;28;20726;-56
2022/07/21 08:55:46;;;;;;;19.27;11.27;;;18.50;99.90;;;;;;5074615;28;20283;-55
2022/07/21 08:58:15;;;;;;;17.50;11.17;;;18.50;99.90;;;;;;5074321;28;20220;-56
2022/07/21 09:00:46;;;;;;;17.10;11.10;;;18.50;99.90;;;;;;5075537;28;20670;-55
2022/07/21 09:03:17;;;;;;;15.60;10.87;;;18.60;99.90;;;;;;5074403;28;20203;-56
2022/07/21 09:06:04;;;;;;;14.87;10.13;;;18.50;99.90;;;;;;5075550;28;20307;-55
2022/07/21 09:08:36;;;;;;;20.50;11.00;;;18.50;99.90;;;;;;5075483;28;20196;-55
2022/07/21 09:11:17;;;;;;;16.70;10.50;;;18.60;99.90;;;;;;5075368;28;20714;-56
2022/07/21 09:13:51;;;;;;;17.83;10.63;;;18.60;99.90;;;;;;5075466;28;20195;-55
2022/07/21 09:16:37;;;;;;;14.77;9.67;;;18.70;99.90;;;;;;5075557;28;20846;-56
2022/07/21 09:19:07;;;;;;;15.77;9.13;;;18.70;99.90;;;;;;5075077;28;20625;-56
2022/07/21 09:21:36;;;;;;;12.27;8.23;;;18.70;99.90;;;;;;5075548;28;20588;-56
2022/07/21 09:24:20;;;;;;;13.63;8.97;;;18.70;99.90;;;;;;5075218;28;20216;-56
2022/07/21 09:27:04;;;;;;;19.43;9.17;;;18.70;99.90;;;;;;5075294;28;20259;-56
2022/07/21 09:29:37;;;;;;;17.43;9.03;;;18.60;99.90;;;;;;5075107;28;20223;-56
2022/07/21 09:32:24;;;;;;;18.00;9.27;;;18.70;99.90;;;;;;5075093;28;20192;-55
2022/07/21 09:34:54;;;;;;;17.17;9.73;;;18.60;99.90;;;;;;5074293;28;20276;-56
2022/07/21 09:37:23;;;;;;;17.00;9.20;;;18.60;99.90;;;;;;5073552;28;20196;-55
2022/07/21 09:39:56;;;;;;;13.67;9.70;;;18.60;99.90;;;;;;5074877;28;20280;-56
2022/07/21 09:42:26;;;;;;;18.57;9.27;;;18.70;99.90;;;;;;5073873;28;20540;-56
2022/07/21 09:44:57;;;;;;;16.40;8.97;;;18.70;99.90;;;;;;5074967;28;20271;-56
2022/07/21 09:47:28;;;;;;;12.33;8.70;;;18.70;99.90;;;;;;5074845;28;20202;-56
2022/07/21 09:49:58;;;;;;;14.90;9.07;;;18.70;99.90;;;;;;5074577;28;20303;-56
2022/07/21 09:52:48;;;;;;;16.00;9.30;;;18.80;99.90;;;;;;5073203;28;20216;-55
2022/07/21 09:55:18;;;;;;;16.50;9.30;;;18.80;99.90;;;;;;5074579;28;20196;-55
2022/07/21 09:57:46;;;;;;;18.10;9.37;;;18.80;99.90;;;;;;5072665;28;20302;-55
2022/07/21 10:00:19;;;;;;;17.03;8.97;;;18.90;99.90;;;;;;5074391;28;20227;-56
2022/07/21 10:03:22;;;;;;;15.53;9.27;;;18.90;99.90;;;;;;5054761;28;20193;-55
2022/07/21 10:05:51;;;;;;;14.87;9.43;;;18.90;99.90;;;;;;5053052;28;20660;-55
2022/07/21 10:08:19;;;;;;;16.60;8.10;;;19.00;99.90;;;;;;5056662;28;20219;-56
2022/07/21 10:10:49;;;;;;;20.53;9.27;;;19.10;99.90;;;;;;5074174;28;20196;-56
2022/07/21 10:13:39;;;;;;;18.87;8.47;;;19.30;99.90;;;;;;5074437;28;20628;-56
2022/07/21 10:16:10;;;;;;;15.07;8.40;;;19.50;99.90;;;;;;5074290;28;20192;-55
2022/07/21 10:18:47;;;;;;;17.00;8.03;;;19.60;99.90;;;;;;5054168;28;20209;-55
2022/07/21 10:21:33;;;;;;;15.20;8.03;;;19.60;99.90;;;;;;5051401;28;20214;-55
2022/07/21 10:24:01;;;;;;;14.80;7.77;;;19.70;99.90;;;;;;5074012;28;20278;-56
2022/07/21 10:26:31;;;;;;;14.13;7.23;;;19.80;99.90;;;;;;5073884;28;20287;-55
2022/07/21 10:28:59;;;;;;;12.97;7.47;;;19.80;99.90;;;;;;5073570;28;20220;-55
2022/07/21 10:31:28;;;;;;;19.47;7.50;;;20.00;99.90;;;;;;5068116;28;20280;-55
2022/07/21 10:33:59;;;;;;;17.70;7.40;;;20.30;99.90;;;;;;5066837;28;20658;-55
2022/07/21 10:36:44;;;;;;;11.60;6.97;;;20.40;99.90;;;;;;5067203;28;20607;-55
2022/07/21 10:39:26;;;;;;;12.77;7.00;;;20.30;99.90;;;;;;5053791;28;20266;-56
2022/07/21 10:42:01;;;;;;;8.77;6.20;;;20.00;99.90;;;;;;5065915;28;20706;-56
2022/07/21 10:44:41;;;;;;;11.97;6.83;;;19.90;99.90;;;;;;5073944;28;20283;-56
2022/07/21 10:47:10;;;;;;;10.10;6.63;;;19.80;99.90;;;;;;5073023;28;20224;-56
2022/07/21 10:49:54;;;;;;;11.20;6.33;;;19.70;99.90;;;;;;5073588;28;20321;-55
2022/07/21 10:53:00;;;;;;;10.13;6.70;;;19.70;99.90;;;;;;5073537;28;20188;-56
2022/07/21 10:55:30;;;;;;;13.03;6.17;;;19.70;99.90;;;;;;5073502;28;20188;-56
2022/07/21 10:58:14;;;;;;;13.37;5.93;;;19.70;99.90;;;;;;5073482;28;20535;-56
2022/07/21 11:00:51;;;;;;;8.17;5.47;;;19.60;99.90;;;;;;5072225;28;20230;-56
2022/07/21 11:03:28;;;;;;;15.00;5.80;;;19.60;99.90;;;;;;5071998;28;20291;-56
2022/07/21 11:06:18;;;;;;;8.80;5.33;;;19.50;99.90;;;;;;5071674;28;20200;-55
2022/07/21 11:09:11;;;;;;;13.57;5.33;;;19.50;99.90;;;;;;5071994;28;20328;-55
2022/07/21 11:11:57;;;;;;;10.97;5.37;;;19.50;99.90;;;;;;5071989;28;20211;-56
2022/07/21 11:14:38;;;;;;;9.60;4.63;;;19.50;99.90;;;;;;5073534;28;20199;-56
2022/07/21 11:17:07;;;;;;;9.40;5.23;;;19.50;99.90;;;;;;5073220;28;20278;-56
2022/07/21 11:19:45;;;;;;;14.40;4.80;;;19.50;99.90;;;;;;5075651;28;20212;-55
2022/07/21 11:22:15;;;;;;;7.57;4.07;;;19.50;99.90;;;;;;5093793;28;20245;-56
2022/07/21 11:24:45;;;;;;;6.97;4.13;;;19.50;99.90;;;;;;5076047;28;20715;-55
2022/07/21 11:27:14;;;;;;;10.67;4.80;;;19.50;99.90;;;;;;5071816;28;20290;-56
2022/07/21 11:29:47;;;;;;;6.47;4.10;;;19.60;99.90;;;;;;5071701;28;20648;-56
2022/07/21 11:32:17;;;;;;;9.87;4.07;;;19.80;99.90;;;;;;5073180;28;20275;-55
2022/07/21 11:34:48;;;;;;;8.17;3.93;;;19.90;99.90;;;;;;5073161;28;20639;-55
2022/07/21 11:37:19;;;;;;;10.47;4.30;;;20.10;99.90;;;;;;5073202;28;20183;-55
2022/07/21 11:40:07;;;;;;;9.10;4.20;;;20.20;99.90;;;;;;5072689;28;20663;-55
2022/07/21 11:42:37;;;;;;;8.40;3.70;;;20.50;99.90;;;;;;5071836;28;20659;-55
2022/07/21 11:45:09;;;;;;;12.73;4.33;;;20.50;99.90;;;;;;5071569;28;20535;-56
2022/07/21 11:47:38;;;;;;;6.13;3.80;;;20.50;99.90;;;;;;5072908;28;20246;-56
2022/07/21 11:50:08;;;;;;;6.77;3.90;;;20.40;99.90;;;;;;5071577;28;20238;-55
2022/07/21 11:52:38;;;;;;;8.20;4.23;;;20.40;99.90;;;;;;5066609;28;20294;-55
2022/07/21 11:55:09;;;;;;;9.40;4.23;;;20.40;99.90;;;;;;5052777;28;20678;-56
2022/07/21 11:57:42;;;;;;;13.73;4.40;;;20.20;99.90;;;;;;5062102;28;20219;-55
2022/07/21 12:00:14;;;;;;;11.47;4.60;;;20.00;99.90;;;;;;5076832;28;20208;-55
2022/07/21 12:02:48;;;;;;;12.10;4.67;;;19.80;99.90;;;;;;5077127;28;20639;-56
2022/07/21 12:05:18;;;;;;;14.80;5.20;;;19.70;99.90;;;;;;5059383;28;20578;-55
2022/07/21 12:07:49;;;;;;;11.03;4.40;;;19.60;99.90;;;;;;5065999;28;20232;-55
2022/07/21 12:10:23;;;;;;;14.77;5.13;;;19.50;99.90;;;;;;5076823;28;20565;-56
2022/07/21 12:12:52;;;;;;;12.93;5.40;;;19.50;99.90;;;;;;5075251;28;20290;-54
2022/07/21 12:15:23;;;;;;;18.60;5.43;;;19.40;99.90;;;;;;5076321;28;20196;-56
2022/07/21 12:17:56;;;;;;;15.20;5.30;;;19.50;99.90;;;;;;5076284;28;20210;-55
2022/07/21 12:20:26;;;;;;;10.30;4.77;;;19.50;99.90;;;;;;5076350;28;20200;-55
2022/07/21 12:22:56;;;;;;;16.27;5.77;;;19.60;99.90;;;;;;5076378;28;20699;-55
2022/07/21 12:25:34;;;;;;;11.80;4.80;;;19.80;99.90;;;;;;5074966;28;20196;-56
2022/07/21 12:28:03;;;;;;;8.33;4.97;;;19.90;99.90;;;;;;5076694;28;20180;-55
2022/07/21 12:30:35;;;;;;;11.23;5.10;;;19.90;99.90;;;;;;5076358;28;20578;-55
2022/07/21 12:33:07;;;;;;;9.37;4.80;;;20.10;99.90;;;;;;5075178;28;20231;-55
2022/07/21 12:35:37;;;;;;;10.23;4.87;;;20.30;99.90;;;;;;5076053;28;20663;-55
2022/07/21 12:38:08;;;;;;;10.57;4.73;;;20.30;99.90;;;;;;5074946;28;20195;-56
2022/07/21 12:40:38;;;;;;;15.30;4.97;;;20.40;99.90;;;;;;5074397;28;20235;-55
2022/07/21 12:43:22;;;;;;;9.63;4.60;;;20.40;99.90;;;;;;5056041;28;20192;-56
2022/07/21 12:45:54;;;;;;;15.60;5.27;;;20.50;99.90;;;;;;5055674;28;20224;-54
2022/07/21 12:48:25;;;;;;;11.27;5.17;;;20.50;99.90;;;;;;5067874;28;20203;-56
2022/07/21 12:51:07;;;;;;;13.17;5.53;;;20.60;99.90;;;;;;5075731;28;20257;-56
2022/07/21 12:53:37;;;;;;;12.33;5.00;;;20.30;99.90;;;;;;5076055;28;20220;-56
2022/07/21 12:56:05;;;;;;;21.83;5.50;;;20.10;99.90;;;;;;5075672;28;20194;-55
2022/07/21 12:58:34;;;;;;;11.20;4.93;;;20.10;99.90;;;;;;5075697;28;20544;-56